Time;durP1;ratioP1;P1;durP2;ratioP2;P2;SDS_P1;SDS_P2;PMS_P1;PMS_P2;Temp;Humidity;BMP_temperature;BMP_pressure;BME280_temperature;BME280_humidity;BME280_pressure;Samples;Min_cycle;Max_cycle;Signal;HPM_P1;HPM_P2
2023/09/17 07:35:52;;;;;;;12.55;6.32;;;20.50;99.90;;;;;;4968794;23;20687;-71
2023/09/17 07:38:19;;;;;;;9.57;6.10;;;20.50;99.90;;;;;;4955368;28;20266;-71
2023/09/17 07:40:47;;;;;;;13.52;6.32;;;20.50;99.90;;;;;;4955810;29;20229;-71
2023/09/17 07:43:14;;;;;;;9.95;5.85;;;20.60;99.90;;;;;;4941203;29;20320;-72
2023/09/17 07:45:41;;;;;;;14.27;6.88;;;20.70;99.90;;;;;;4936891;29;20208;-72
2023/09/17 07:48:08;;;;;;;14.07;6.93;;;20.80;99.90;;;;;;4936722;29;20667;-71
2023/09/17 07:50:35;;;;;;;17.67;8.27;;;20.80;99.90;;;;;;4936525;29;20332;-71
2023/09/17 07:53:04;;;;;;;17.88;8.70;;;20.70;99.90;;;;;;4936243;29;20662;-71
2023/09/17 07:55:30;;;;;;;17.42;8.63;;;20.70;99.90;;;;;;4936342;29;20213;-71
2023/09/17 07:57:57;;;;;;;15.43;7.60;;;20.70;99.90;;;;;;4936618;29;20295;-71
2023/09/17 08:00:25;;;;;;;16.75;8.85;;;20.90;99.90;;;;;;4936665;29;20244;-72
2023/09/17 08:02:51;;;;;;;19.25;9.05;;;21.00;99.90;;;;;;4936647;29;20233;-73
2023/09/17 08:05:18;;;;;;;17.85;9.05;;;21.10;99.90;;;;;;4936411;29;20329;-72
2023/09/17 08:07:45;;;;;;;18.15;7.70;;;21.30;99.90;;;;;;4936252;29;20255;-73
2023/09/17 08:10:14;;;;;;;16.35;8.32;;;21.50;99.90;;;;;;4935964;29;20251;-72
2023/09/17 08:12:40;;;;;;;19.70;9.15;;;21.60;99.90;;;;;;4935796;29;20625;-73
2023/09/17 08:15:08;;;;;;;15.52;7.85;;;21.70;99.90;;;;;;4936505;29;20748;-72
2023/09/17 08:17:36;;;;;;;20.80;8.02;;;21.50;99.90;;;;;;4936308;29;20208;-77
2023/09/17 08:20:04;;;;;;;15.00;8.10;;;21.50;99.90;;;;;;4935730;29;20635;-72
2023/09/17 08:22:32;;;;;;;21.15;9.25;;;21.50;99.90;;;;;;4928688;29;20233;-73
2023/09/17 08:24:59;;;;;;;16.40;8.32;;;21.50;99.90;;;;;;4943372;29;20215;-74
2023/09/17 08:27:27;;;;;;;17.60;8.13;;;21.40;99.90;;;;;;4955259;28;20259;-74
2023/09/17 08:29:54;;;;;;;16.35;7.85;;;21.30;99.90;;;;;;4937577;29;20686;-73
2023/09/17 08:32:21;;;;;;;16.85;7.90;;;21.50;99.90;;;;;;4935674;29;20787;-71
2023/09/17 08:34:48;;;;;;;12.57;7.20;;;21.50;99.90;;;;;;4935351;29;20309;-71
2023/09/17 08:37:17;;;;;;;11.95;6.05;;;21.50;99.90;;;;;;4943660;29;20235;-72
2023/09/17 08:39:44;;;;;;;13.35;6.22;;;21.40;99.90;;;;;;4939125;29;20209;-72
2023/09/17 08:42:11;;;;;;;13.65;6.72;;;21.50;99.90;;;;;;4935577;29;20323;-72
2023/09/17 08:44:40;;;;;;;15.23;6.45;;;21.50;99.90;;;;;;4935587;29;20261;-71
2023/09/17 08:47:07;;;;;;;15.02;6.97;;;21.70;99.90;;;;;;4935505;29;20237;-73
2023/09/17 08:49:34;;;;;;;13.90;7.15;;;22.00;99.90;;;;;;4946703;29;20671;-72
2023/09/17 08:52:04;;;;;;;12.93;6.97;;;22.00;99.90;;;;;;4953774;28;20274;-72
2023/09/17 08:54:40;;;;;;;14.98;6.63;;;21.80;99.90;;;;;;4940958;29;20660;-72
2023/09/17 08:57:09;;;;;;;9.52;5.57;;;22.00;99.90;;;;;;4934290;29;20295;-72
2023/09/17 08:59:45;;;;;;;10.75;5.68;;;22.20;99.90;;;;;;4934628;29;20299;-71
2023/09/17 09:02:21;;;;;;;11.45;6.00;;;22.00;99.90;;;;;;4934864;29;20343;-71
2023/09/17 09:04:50;;;;;;;9.45;4.90;;;22.00;99.90;;;;;;4935238;29;20211;-72
2023/09/17 09:07:18;;;;;;;12.35;5.10;;;22.00;99.90;;;;;;4934724;29;20213;-73
2023/09/17 09:09:47;;;;;;;10.07;5.43;;;22.00;99.90;;;;;;4935000;29;20362;-72
2023/09/17 09:12:15;;;;;;;8.57;5.15;;;22.00;99.90;;;;;;4934816;29;20236;-72
2023/09/17 09:14:45;;;;;;;9.93;5.50;;;22.00;99.90;;;;;;4937703;29;20204;-70
2023/09/17 09:17:13;;;;;;;8.18;5.03;;;22.20;99.90;;;;;;4934850;29;20212;-72
2023/09/17 09:19:40;;;;;;;8.32;5.00;;;22.50;99.90;;;;;;4937311;29;20727;-69
2023/09/17 09:22:07;;;;;;;9.65;4.50;;;22.60;99.90;;;;;;4933739;29;20267;-71
2023/09/17 09:24:42;;;;;;;9.82;4.75;;;22.80;99.90;;;;;;4933505;29;20751;-70
2023/09/17 09:27:10;;;;;;;6.93;4.15;;;22.80;99.90;;;;;;4937462;29;20663;-69
2023/09/17 09:29:37;;;;;;;9.45;4.45;;;22.60;99.90;;;;;;4936129;29;20310;-70
2023/09/17 09:32:06;;;;;;;10.15;4.13;;;22.60;99.90;;;;;;4936603;29;20327;-72
2023/09/17 09:34:35;;;;;;;7.47;3.97;;;22.60;99.90;;;;;;4937175;29;20251;-71
2023/09/17 09:37:05;;;;;;;6.65;4.50;;;22.70;99.90;;;;;;4937122;29;20213;-72
2023/09/17 09:39:32;;;;;;;5.85;4.03;;;23.00;99.90;;;;;;4937240;29;20236;-72
2023/09/17 09:42:00;;;;;;;7.90;3.70;;;23.20;99.90;;;;;;4936944;29;20674;-71
2023/09/17 09:44:27;;;;;;;8.48;3.60;;;23.20;99.90;;;;;;4937233;29;20243;-72
2023/09/17 09:46:57;;;;;;;7.72;3.80;;;23.30;99.90;;;;;;4937243;29;20247;-71
2023/09/17 09:49:25;;;;;;;6.53;3.80;;;23.30;99.90;;;;;;4937410;29;20260;-72
2023/09/17 09:51:53;;;;;;;5.68;3.50;;;23.40;99.90;;;;;;4937081;29;20332;-72
2023/09/17 09:54:20;;;;;;;6.18;3.50;;;23.50;99.90;;;;;;4937394;29;20303;-71
2023/09/17 09:56:47;;;;;;;4.50;3.10;;;23.50;99.90;;;;;;4936785;29;20209;-71
2023/09/17 09:59:14;;;;;;;4.40;3.05;;;23.40;99.90;;;;;;4937073;29;20299;-72
2023/09/17 10:01:42;;;;;;;5.13;2.60;;;23.60;99.90;;;;;;4937190;29;20240;-71
2023/09/17 10:04:10;;;;;;;5.22;3.53;;;23.50;99.90;;;;;;4937065;29;20262;-71
2023/09/17 10:06:39;;;;;;;4.70;2.80;;;23.20;99.90;;;;;;4936660;29;20675;-71
2023/09/17 10:09:09;;;;;;;4.30;2.95;;;23.30;99.90;;;;;;4936488;29;20304;-71
2023/09/17 10:11:36;;;;;;;4.15;3.08;;;23.50;99.90;;;;;;4937433;29;20247;-71
2023/09/17 10:14:03;;;;;;;3.90;2.67;;;23.80;99.90;;;;;;4937018;29;20209;-72
2023/09/17 10:16:31;;;;;;;4.30;3.00;;;24.10;99.90;;;;;;4936810;29;20332;-71
2023/09/17 10:19:00;;;;;;;3.53;2.50;;;24.20;99.90;;;;;;4937158;29;20275;-71
2023/09/17 10:21:28;;;;;;;4.80;2.95;;;24.60;99.90;;;;;;4936897;29;20291;-72
2023/09/17 10:23:58;;;;;;;4.95;2.65;;;24.70;99.90;;;;;;4937073;29;20240;-71
2023/09/17 10:26:31;;;;;;;4.75;2.72;;;24.80;99.90;;;;;;4937114;29;20212;-71
2023/09/17 10:29:00;;;;;;;3.45;2.42;;;24.60;99.90;;;;;;4937241;29;20209;-72
2023/09/17 10:31:29;;;;;;;2.75;2.15;;;24.50;99.90;;;;;;4936825;29;20295;-71
2023/09/17 10:33:59;;;;;;;4.20;3.00;;;24.60;99.90;;;;;;4936632;29;20213;-72
2023/09/17 10:36:26;;;;;;;3.22;2.35;;;24.70;99.90;;;;;;4936076;29;20240;-72
2023/09/17 10:38:58;;;;;;;5.57;2.70;;;24.70;99.90;;;;;;4936309;29;20248;-72
2023/09/17 10:41:28;;;;;;;3.97;2.00;;;24.60;99.90;;;;;;4935693;29;20239;-72
2023/09/17 10:43:57;;;;;;;3.63;2.40;;;24.80;99.90;;;;;;4936832;29;20217;-71
2023/09/17 10:46:24;;;;;;;2.90;2.10;;;24.90;99.90;;;;;;4936023;29;20209;-71
2023/09/17 10:48:53;;;;;;;3.08;2.30;;;24.70;99.90;;;;;;4936618;29;20297;-72
2023/09/17 10:51:21;;;;;;;3.25;2.03;;;24.40;99.90;;;;;;4935884;29;20237;-72
2023/09/17 10:53:48;;;;;;;3.28;2.33;;;24.50;99.90;;;;;;4936188;29;20321;-72
2023/09/17 10:56:17;;;;;;;3.63;2.33;;;24.60;99.90;;;;;;4936464;29;20291;-71
2023/09/17 10:58:46;;;;;;;3.13;1.90;;;24.90;99.90;;;;;;4936002;29;20209;-71
2023/09/17 11:01:16;;;;;;;3.00;2.08;;;25.10;99.90;;;;;;4936394;29;20275;-71
2023/09/17 11:03:47;;;;;;;3.13;2.05;;;25.10;99.90;;;;;;4936150;29;20271;-71
2023/09/17 11:06:23;;;;;;;4.00;2.22;;;25.00;99.90;;;;;;4936292;29;20213;-71
2023/09/17 11:08:52;;;;;;;2.88;1.92;;;25.10;99.90;;;;;;4936141;29;20291;-71
2023/09/17 11:11:23;;;;;;;3.40;1.90;;;24.80;99.90;;;;;;4935737;29;20279;-72
2023/09/17 11:13:51;;;;;;;3.47;2.15;;;24.80;99.90;;;;;;4936106;29;20232;-71
2023/09/17 11:16:19;;;;;;;3.08;2.20;;;24.60;99.90;;;;;;4936119;29;20739;-71
2023/09/17 11:19:05;;;;;;;4.22;2.40;;;24.50;99.90;;;;;;4935985;29;20360;-71
2023/09/17 11:21:35;;;;;;;3.15;2.08;;;24.40;99.90;;;;;;4935920;29;20208;-71
2023/09/17 11:24:05;;;;;;;3.28;2.20;;;24.40;99.90;;;;;;4936073;29;20209;-71
2023/09/17 11:26:35;;;;;;;2.75;2.00;;;24.40;99.90;;;;;;4936464;29;20329;-72
2023/09/17 11:29:06;;;;;;;3.03;2.25;;;24.60;99.90;;;;;;4937021;29;20215;-72
2023/09/17 11:31:35;;;;;;;3.45;2.17;;;24.50;99.90;;;;;;4936502;29;20304;-72
2023/09/17 11:34:06;;;;;;;4.22;1.77;;;24.60;99.90;;;;;;4937174;29;20241;-73
2023/09/17 11:36:34;;;;;;;3.03;2.42;;;24.70;99.90;;;;;;4936831;29;20222;-72
2023/09/17 11:39:05;;;;;;;5.13;2.38;;;24.70;99.90;;;;;;4936938;29;20617;-73
2023/09/17 11:41:36;;;;;;;4.53;2.13;;;24.80;99.90;;;;;;4936438;29;20623;-73
2023/09/17 11:44:04;;;;;;;3.22;2.35;;;24.80;99.90;;;;;;4936818;29;20212;-73
2023/09/17 11:46:33;;;;;;;3.33;2.28;;;24.80;99.90;;;;;;4936832;29;20209;-72
2023/09/17 11:49:01;;;;;;;2.70;2.20;;;24.70;99.90;;;;;;4935958;29;20209;-71
2023/09/17 11:51:29;;;;;;;3.55;2.10;;;24.70;99.90;;;;;;4936421;29;20710;-71
2023/09/17 11:53:58;;;;;;;2.97;2.15;;;24.80;99.90;;;;;;4936828;29;20255;-72
2023/09/17 11:56:28;;;;;;;4.15;2.35;;;24.80;99.90;;;;;;4936456;29;20688;-71
2023/09/17 11:59:08;;;;;;;2.20;1.70;;;24.80;99.90;;;;;;4936603;29;20293;-72
2023/09/17 12:01:37;;;;;;;2.10;1.90;;;25.10;99.90;;;;;;4936339;29;20215;-73
2023/09/17 12:04:09;;;;;;;2.50;1.90;;;25.10;99.90;;;;;;4936287;29;20208;-72
2023/09/17 12:06:39;;;;;;;2.10;1.65;;;25.00;99.90;;;;;;4936631;29;20292;-72
2023/09/17 12:09:15;;;;;;;2.30;1.92;;;25.00;99.90;;;;;;4936537;29;20215;-72
2023/09/17 12:11:43;;;;;;;2.72;1.77;;;25.10;99.90;;;;;;4936321;29;20262;-72
2023/09/17 12:14:12;;;;;;;3.05;1.90;;;25.50;99.90;;;;;;4936317;29;20244;-71
2023/09/17 12:16:40;;;;;;;2.83;1.60;;;25.40;99.90;;;;;;4936367;29;20692;-71
2023/09/17 12:19:07;;;;;;;2.72;2.15;;;25.50;99.90;;;;;;4936282;29;20267;-71
2023/09/17 12:21:39;;;;;;;3.58;2.30;;;25.80;99.90;;;;;;4936272;29;20292;-72
2023/09/17 12:24:06;;;;;;;2.72;2.00;;;25.90;99.90;;;;;;4936175;29;20209;-72
2023/09/17 12:26:35;;;;;;;2.25;1.70;;;25.80;99.90;;;;;;4936178;29;20205;-72
2023/09/17 12:29:03;;;;;;;2.00;1.70;;;25.90;99.90;;;;;;4936053;29;20209;-72
2023/09/17 12:31:31;;;;;;;2.65;1.80;;;25.80;99.90;;;;;;4936042;29;20284;-72
2023/09/17 12:33:58;;;;;;;3.30;1.80;;;25.70;99.90;;;;;;4936027;29;20238;-72
2023/09/17 12:36:25;;;;;;;2.00;1.60;;;25.80;99.90;;;;;;4936055;29;20255;-72
2023/09/17 12:38:52;;;;;;;2.50;1.60;;;25.90;99.90;;;;;;4935908;29;20304;-72
2023/09/17 12:41:19;;;;;;;2.22;1.50;;;26.10;99.90;;;;;;4935563;29;20251;-72
2023/09/17 12:43:46;;;;;;;2.83;1.70;;;25.90;99.90;;;;;;4935405;29;20264;-72
2023/09/17 12:46:13;;;;;;;3.35;1.98;;;25.80;99.90;;;;;;4936025;29;20221;-72
2023/09/17 12:48:42;;;;;;;2.97;1.60;;;25.70;99.90;;;;;;4936132;29;20240;-72
2023/09/17 12:51:09;;;;;;;3.63;1.63;;;25.90;99.90;;;;;;4936055;29;20616;-72
2023/09/17 12:53:37;;;;;;;2.33;1.60;;;26.00;99.90;;;;;;4935417;29;20422;-71
2023/09/17 12:56:05;;;;;;;2.65;1.95;;;26.10;99.90;;;;;;4935774;29;20263;-71
2023/09/17 12:58:32;;;;;;;1.88;1.67;;;26.40;99.90;;;;;;4935851;29;20295;-72
2023/09/17 13:01:07;;;;;;;1.90;1.70;;;26.70;99.90;;;;;;4939616;29;20215;-71
2023/09/17 13:03:34;;;;;;;2.38;1.70;;;26.70;99.90;;;;;;4939757;29;20270;-72
2023/09/17 13:06:02;;;;;;;1.83;1.50;;;26.70;99.90;;;;;;4939306;29;20255;-72
2023/09/17 13:08:30;;;;;;;1.80;1.55;;;26.80;99.90;;;;;;4939511;29;20212;-72
2023/09/17 13:10:58;;;;;;;3.85;1.90;;;27.10;99.90;;;;;;4939413;29;20575;-72
2023/09/17 13:13:25;;;;;;;2.05;1.70;;;27.00;99.90;;;;;;4939274;29;20241;-72
2023/09/17 13:15:52;;;;;;;4.68;2.00;;;26.90;99.90;;;;;;4939449;29;20667;-72
2023/09/17 13:18:19;;;;;;;3.45;1.80;;;27.00;99.90;;;;;;4939618;29;20204;-71
2023/09/17 13:20:47;;;;;;;3.47;1.70;;;27.20;99.90;;;;;;4939409;29;20243;-72
2023/09/17 13:23:15;;;;;;;1.88;1.50;;;27.20;99.90;;;;;;4939399;29;20315;-72
2023/09/17 13:25:42;;;;;;;2.53;1.80;;;27.20;99.90;;;;;;4939224;29;20255;-72
2023/09/17 13:28:14;;;;;;;3.30;1.85;;;26.80;99.90;;;;;;4939165;29;20209;-71
2023/09/17 13:30:43;;;;;;;2.72;1.80;;;26.60;99.90;;;;;;4939210;29;20205;-71
2023/09/17 13:33:13;;;;;;;2.30;1.88;;;26.60;99.90;;;;;;4939376;29;20335;-72
2023/09/17 13:35:42;;;;;;;1.75;1.33;;;26.70;99.90;;;;;;4939105;29;20304;-72
2023/09/17 13:38:12;;;;;;;3.17;1.90;;;27.00;99.90;;;;;;4938739;29;20668;-71
2023/09/17 13:40:45;;;;;;;2.20;1.70;;;27.10;99.90;;;;;;4939130;29;20247;-71
2023/09/17 13:43:12;;;;;;;3.65;1.80;;;27.30;99.90;;;;;;4938703;29;20839;-71
2023/09/17 13:45:49;;;;;;;2.58;2.38;;;27.40;99.90;;;;;;4938935;29;20292;-71
2023/09/17 13:48:16;;;;;;;2.10;1.85;;;26.90;99.90;;;;;;4938895;29;20244;-72
2023/09/17 13:50:43;;;;;;;3.30;1.65;;;26.40;99.90;;;;;;4938892;29;20295;-71
2023/09/17 13:53:09;;;;;;;2.17;1.90;;;26.00;99.90;;;;;;4938395;29;20280;-72
2023/09/17 13:55:36;;;;;;;4.28;2.00;;;25.80;99.90;;;;;;4938740;29;20633;-72
2023/09/17 13:58:05;;;;;;;2.92;2.25;;;25.80;99.90;;;;;;4938412;29;20636;-72
2023/09/17 14:00:32;;;;;;;4.85;2.40;;;25.90;99.90;;;;;;4938858;29;20264;-72
2023/09/17 14:03:02;;;;;;;3.00;2.30;;;26.00;99.90;;;;;;4938645;29;20260;-72
2023/09/17 14:05:30;;;;;;;3.88;1.95;;;26.10;99.90;;;;;;4938313;29;20244;-72
2023/09/17 14:07:57;;;;;;;2.72;1.85;;;26.20;99.90;;;;;;4938295;29;20205;-72
2023/09/17 14:10:24;;;;;;;5.03;2.40;;;26.30;99.90;;;;;;4937954;29;20330;-72
2023/09/17 14:12:51;;;;;;;3.70;2.38;;;26.50;99.90;;;;;;4937870;29;20323;-72
2023/09/17 14:15:21;;;;;;;6.18;2.45;;;26.70;99.90;;;;;;4938480;29;20304;-72
2023/09/17 14:17:47;;;;;;;4.20;2.80;;;26.60;99.90;;;;;;4938325;29;20734;-71
2023/09/17 14:20:14;;;;;;;7.68;4.10;;;26.60;99.90;;;;;;4938557;29;20247;-72
2023/09/17 14:22:41;;;;;;;4.88;3.42;;;26.60;99.90;;;;;;4937995;29;20291;-72
2023/09/17 14:25:09;;;;;;;7.78;4.60;;;26.60;99.90;;;;;;4938124;29;20295;-72
2023/09/17 14:27:36;;;;;;;8.35;5.07;;;26.70;99.90;;;;;;4937832;29;20213;-72
2023/09/17 14:30:05;;;;;;;7.07;3.50;;;26.80;99.90;;;;;;4937905;29;20205;-72
2023/09/17 14:32:33;;;;;;;5.32;3.30;;;26.40;99.90;;;;;;4938180;29;20267;-72
2023/09/17 14:35:00;;;;;;;3.47;2.40;;;26.30;99.90;;;;;;4938168;29;20220;-72
2023/09/17 14:37:27;;;;;;;8.32;2.78;;;26.20;99.90;;;;;;4937780;29;20243;-72
2023/09/17 14:39:54;;;;;;;3.05;2.30;;;26.10;99.90;;;;;;4937760;29;20244;-72
2023/09/17 14:42:21;;;;;;;3.00;2.05;;;26.00;99.90;;;;;;4937725;29;20264;-72
2023/09/17 14:44:48;;;;;;;4.00;2.25;;;25.60;99.90;;;;;;4938350;29;20317;-72
2023/09/17 14:47:15;;;;;;;5.63;2.42;;;25.50;99.90;;;;;;4937827;29;20296;-72
2023/09/17 14:49:43;;;;;;;4.07;2.22;;;25.70;99.90;;;;;;4938166;29;20213;-72
2023/09/17 14:52:10;;;;;;;3.05;2.03;;;26.00;99.90;;;;;;4937454;29;20256;-72
2023/09/17 14:54:37;;;;;;;3.38;2.00;;;25.90;99.90;;;;;;4937501;28;20244;-72
2023/09/17 14:57:04;;;;;;;2.95;2.00;;;26.00;99.90;;;;;;4937527;29;20300;-72
2023/09/17 14:59:31;;;;;;;3.72;2.30;;;25.90;99.90;;;;;;4937485;29;20244;-72
2023/09/17 15:02:00;;;;;;;4.05;2.35;;;25.90;99.90;;;;;;4937272;29;20228;-71
2023/09/17 15:04:27;;;;;;;2.88;1.95;;;25.70;99.90;;;;;;4937733;29;20251;-72
2023/09/17 15:06:56;;;;;;;2.85;2.13;;;25.50;99.90;;;;;;4937396;29;20211;-72
2023/09/17 15:09:23;;;;;;;4.20;1.92;;;25.50;99.90;;;;;;4937657;29;20348;-72
2023/09/17 15:11:50;;;;;;;5.35;2.58;;;25.30;99.90;;;;;;4937243;29;20376;-72
2023/09/17 15:14:17;;;;;;;4.18;2.38;;;25.10;99.90;;;;;;4937022;29;20596;-72
2023/09/17 15:16:44;;;;;;;2.80;2.33;;;24.90;99.90;;;;;;4937312;29;20264;-71
2023/09/17 15:19:10;;;;;;;3.70;2.70;;;25.00;99.90;;;;;;4937477;29;20295;-71
2023/09/17 15:21:37;;;;;;;3.47;2.45;;;25.00;99.90;;;;;;4937127;29;20714;-71
2023/09/17 15:24:06;;;;;;;3.28;2.40;;;25.20;99.90;;;;;;4936650;29;20632;-72
2023/09/17 15:26:33;;;;;;;3.15;2.42;;;25.30;99.90;;;;;;4937039;29;20763;-71
2023/09/17 15:29:00;;;;;;;3.53;2.60;;;25.30;99.90;;;;;;4937143;29;20236;-71
2023/09/17 15:31:27;;;;;;;3.60;2.60;;;25.20;99.90;;;;;;4937139;29;20215;-71
2023/09/17 15:33:54;;;;;;;3.28;2.30;;;25.10;99.90;;;;;;4936709;29;20240;-71
2023/09/17 15:36:21;;;;;;;3.15;2.50;;;25.20;99.90;;;;;;4936685;29;20660;-71
2023/09/17 15:38:48;;;;;;;5.50;2.90;;;25.30;99.90;;;;;;4936727;29;20217;-72
2023/09/17 15:41:16;;;;;;;3.55;2.90;;;25.20;99.90;;;;;;4936707;29;20675;-72
2023/09/17 15:43:43;;;;;;;5.18;3.05;;;25.30;99.90;;;;;;4937034;29;20323;-72
2023/09/17 15:46:10;;;;;;;3.40;2.53;;;25.20;99.90;;;;;;4936434;29;20287;-71
2023/09/17 15:48:37;;;;;;;4.22;3.20;;;25.00;99.90;;;;;;4936371;29;20259;-72
2023/09/17 15:51:04;;;;;;;4.05;2.85;;;24.90;99.90;;;;;;4936306;29;20295;-71
2023/09/17 15:53:32;;;;;;;4.60;3.05;;;25.00;99.90;;;;;;4936410;29;20244;-71
2023/09/17 15:55:59;;;;;;;3.58;2.53;;;25.00;99.90;;;;;;4936361;29;20291;-71
2023/09/17 15:58:27;;;;;;;3.60;2.95;;;25.00;99.90;;;;;;4936358;29;20244;-71
2023/09/17 16:00:54;;;;;;;4.63;3.20;;;25.00;99.90;;;;;;4936347;29;20240;-71
2023/09/17 16:03:21;;;;;;;4.68;2.72;;;24.80;99.90;;;;;;4936277;29;20264;-71
2023/09/17 16:05:49;;;;;;;4.20;3.20;;;24.80;99.90;;;;;;4936427;29;20245;-72
2023/09/17 16:08:16;;;;;;;4.43;2.70;;;24.90;99.90;;;;;;4935716;29;20738;-72
2023/09/17 16:10:43;;;;;;;3.45;2.83;;;24.90;99.90;;;;;;4936269;29;20313;-72
2023/09/17 16:13:09;;;;;;;4.28;2.70;;;24.90;99.90;;;;;;4936047;29;20319;-71
2023/09/17 16:15:38;;;;;;;3.15;2.67;;;24.70;99.90;;;;;;4935982;29;20668;-71
2023/09/17 16:18:05;;;;;;;3.70;2.97;;;24.60;99.90;;;;;;4935909;29;20249;-72
2023/09/17 16:20:32;;;;;;;4.43;2.92;;;24.60;99.90;;;;;;4936018;29;20240;-72
2023/09/17 16:22:59;;;;;;;6.30;3.17;;;24.50;99.90;;;;;;4935771;29;20268;-72
2023/09/17 16:25:26;;;;;;;4.30;3.00;;;24.50;99.90;;;;;;4935775;29;20236;-71
2023/09/17 16:27:53;;;;;;;4.05;2.95;;;24.50;99.90;;;;;;4935952;29;20267;-71
2023/09/17 16:30:20;;;;;;;4.20;3.60;;;24.60;99.90;;;;;;4935854;29;20719;-72
2023/09/17 16:32:48;;;;;;;3.50;2.97;;;24.50;99.90;;;;;;4935591;29;20271;-71
2023/09/17 16:35:15;;;;;;;4.13;3.20;;;24.40;99.90;;;;;;4935948;29;20244;-71
2023/09/17 16:37:42;;;;;;;4.30;3.30;;;24.30;99.90;;;;;;4936007;29;20260;-71
2023/09/17 16:40:10;;;;;;;4.00;3.42;;;24.20;99.90;;;;;;4936010;29;20204;-71
2023/09/17 16:42:37;;;;;;;3.53;3.17;;;24.20;99.90;;;;;;4935759;29;20316;-72
2023/09/17 16:45:06;;;;;;;3.75;3.00;;;24.00;99.90;;;;;;4936014;29;20244;-72
2023/09/17 16:47:33;;;;;;;4.88;3.70;;;23.90;99.90;;;;;;4935843;29;20209;-72
2023/09/17 16:50:01;;;;;;;3.67;3.00;;;23.90;99.90;;;;;;4935802;29;20690;-72
2023/09/17 16:52:28;;;;;;;4.10;3.10;;;23.90;99.90;;;;;;4935375;29;20588;-72
2023/09/17 16:54:55;;;;;;;3.67;2.97;;;23.80;99.90;;;;;;4935404;29;20659;-72
2023/09/17 16:57:22;;;;;;;4.70;3.70;;;23.80;99.90;;;;;;4935509;29;20636;-71
2023/09/17 16:59:49;;;;;;;3.60;3.05;;;23.70;99.90;;;;;;4935623;29;20259;-71
2023/09/17 17:02:16;;;;;;;4.65;3.67;;;23.70;99.90;;;;;;4935917;29;20275;-71
2023/09/17 17:04:45;;;;;;;4.50;3.40;;;23.60;99.90;;;;;;4936347;29;20209;-71
2023/09/17 17:07:13;;;;;;;4.53;3.10;;;23.50;99.90;;;;;;4934702;29;20205;-71
2023/09/17 17:09:40;;;;;;;4.85;3.47;;;23.50;99.90;;;;;;4952673;29;20254;-71
2023/09/17 17:12:07;;;;;;;4.07;2.95;;;23.50;99.90;;;;;;4954143;28;20270;-71
2023/09/17 17:14:34;;;;;;;4.55;3.28;;;23.50;99.90;;;;;;4954606;29;20330;-72
2023/09/17 17:17:01;;;;;;;5.07;3.63;;;23.50;99.90;;;;;;4954374;29;20667;-71
2023/09/17 17:19:28;;;;;;;5.03;3.35;;;23.40;99.90;;;;;;4954388;28;20212;-71
2023/09/17 17:21:55;;;;;;;5.60;4.20;;;23.30;99.90;;;;;;4954295;28;20255;-71
2023/09/17 17:24:23;;;;;;;3.90;3.15;;;23.20;99.90;;;;;;4953922;29;20242;-71
2023/09/17 17:26:50;;;;;;;4.70;3.60;;;23.20;99.90;;;;;;4954630;29;20575;-71
2023/09/17 17:29:18;;;;;;;5.32;3.40;;;23.30;99.90;;;;;;4954342;28;20208;-71
2023/09/17 17:31:44;;;;;;;4.88;3.53;;;23.20;99.90;;;;;;4954243;28;20211;-71
2023/09/17 17:34:11;;;;;;;5.57;3.60;;;23.30;99.90;;;;;;4954238;29;20326;-71
2023/09/17 17:36:38;;;;;;;5.38;3.40;;;23.10;99.90;;;;;;4954183;29;20248;-72
2023/09/17 17:39:05;;;;;;;5.07;3.60;;;23.10;99.90;;;;;;4954060;29;20232;-71
2023/09/17 17:41:33;;;;;;;4.97;3.30;;;23.10;99.90;;;;;;4954414;28;20294;-72
2023/09/17 17:44:00;;;;;;;6.30;3.67;;;23.10;99.90;;;;;;4954276;29;20299;-72
2023/09/17 17:46:27;;;;;;;10.10;5.25;;;23.10;99.90;;;;;;4955435;28;20631;-72
2023/09/17 17:48:54;;;;;;;5.78;4.22;;;23.00;99.90;;;;;;4957782;29;20243;-71
2023/09/17 17:51:21;;;;;;;5.57;4.10;;;23.00;99.90;;;;;;4957606;29;20295;-71
2023/09/17 17:53:48;;;;;;;5.20;3.85;;;23.10;99.90;;;;;;4957375;28;20332;-71
2023/09/17 17:56:15;;;;;;;4.55;3.50;;;23.10;99.90;;;;;;4957511;29;20246;-71
2023/09/17 17:58:43;;;;;;;5.10;3.90;;;23.10;99.90;;;;;;4957665;29;20242;-71
2023/09/17 18:01:10;;;;;;;5.85;3.35;;;23.00;99.90;;;;;;4957394;29;20727;-71
2023/09/17 18:03:37;;;;;;;4.38;3.38;;;23.00;99.90;;;;;;4957403;28;20270;-71
2023/09/17 18:06:04;;;;;;;8.57;3.67;;;23.00;99.90;;;;;;4957365;28;20689;-71
2023/09/17 18:08:31;;;;;;;5.75;3.90;;;22.90;99.90;;;;;;4940090;28;20212;-71
2023/09/17 18:10:58;;;;;;;4.47;3.40;;;23.00;99.90;;;;;;4938267;29;20244;-71
2023/09/17 18:13:25;;;;;;;6.90;3.50;;;22.90;99.90;;;;;;4937978;29;20237;-73
2023/09/17 18:15:53;;;;;;;4.28;3.30;;;22.90;99.90;;;;;;4937833;29;20486;-72
2023/09/17 18:18:20;;;;;;;4.55;3.28;;;22.90;99.90;;;;;;4938458;29;20759;-72
2023/09/17 18:20:47;;;;;;;4.10;3.10;;;22.90;99.90;;;;;;4938083;29;20236;-73
2023/09/17 18:23:14;;;;;;;4.63;3.05;;;22.70;99.90;;;;;;4938013;29;20233;-72
2023/09/17 18:25:41;;;;;;;5.00;3.45;;;22.50;99.90;;;;;;4938227;29;20287;-72
2023/09/17 18:28:09;;;;;;;7.07;3.63;;;22.50;99.90;;;;;;4938295;29;20288;-72
2023/09/17 18:30:36;;;;;;;4.97;3.55;;;22.50;99.90;;;;;;4938143;29;20216;-72
2023/09/17 18:33:06;;;;;;;3.60;3.03;;;22.50;99.90;;;;;;4937755;29;20726;-71
2023/09/17 18:35:33;;;;;;;4.53;3.38;;;22.50;99.90;;;;;;4938087;29;20769;-71
2023/09/17 18:38:00;;;;;;;5.00;3.58;;;22.60;99.90;;;;;;4938054;29;20236;-72
2023/09/17 18:40:26;;;;;;;4.85;3.30;;;22.60;99.90;;;;;;4937907;29;20299;-71
2023/09/17 18:42:53;;;;;;;6.55;3.55;;;22.50;99.90;;;;;;4937667;29;20261;-71
2023/09/17 18:45:20;;;;;;;4.93;3.03;;;22.40;99.90;;;;;;4937797;29;20687;-72
2023/09/17 18:47:47;;;;;;;4.18;3.00;;;22.40;99.90;;;;;;4937692;29;20209;-71
2023/09/17 18:50:15;;;;;;;4.47;3.10;;;22.40;99.90;;;;;;4937229;29;20247;-71
2023/09/17 18:52:42;;;;;;;4.45;3.08;;;22.40;99.90;;;;;;4939756;29;20282;-72
2023/09/17 18:55:09;;;;;;;3.13;2.72;;;22.40;99.90;;;;;;4946286;29;20311;-72
2023/09/17 18:57:39;;;;;;;3.60;2.50;;;22.40;99.90;;;;;;4951008;28;20240;-72
2023/09/17 19:00:08;;;;;;;4.60;3.25;;;22.40;99.90;;;;;;4956605;28;20215;-72
2023/09/17 19:02:39;;;;;;;3.85;2.83;;;22.40;99.90;;;;;;4956090;28;20232;-72
2023/09/17 19:05:07;;;;;;;2.95;2.53;;;22.40;99.90;;;;;;4956783;28;20212;-72
2023/09/17 19:07:35;;;;;;;4.80;3.42;;;22.40;99.90;;;;;;4955683;28;20208;-72
2023/09/17 19:10:03;;;;;;;3.72;2.65;;;22.30;99.90;;;;;;4956455;28;20243;-72
2023/09/17 19:12:30;;;;;;;3.45;2.55;;;22.30;99.90;;;;;;4956586;28;20231;-72
2023/09/17 19:14:58;;;;;;;4.65;2.83;;;22.20;99.90;;;;;;4956143;28;20327;-72
2023/09/17 19:17:25;;;;;;;3.25;2.85;;;22.20;99.90;;;;;;4956658;28;20211;-72
2023/09/17 19:19:52;;;;;;;3.30;2.42;;;22.20;99.90;;;;;;4955789;28;20236;-72
2023/09/17 19:22:19;;;;;;;5.78;2.65;;;22.20;99.90;;;;;;4955757;28;20262;-72
2023/09/17 19:24:47;;;;;;;2.97;2.40;;;22.10;99.90;;;;;;4956172;28;20246;-72
2023/09/17 19:27:15;;;;;;;3.10;2.20;;;22.10;99.90;;;;;;4956045;28;20243;-72
2023/09/17 19:29:41;;;;;;;3.33;3.00;;;22.10;99.90;;;;;;4956061;28;20218;-71
2023/09/17 19:32:09;;;;;;;3.10;2.50;;;22.00;99.90;;;;;;4956330;28;20631;-71
2023/09/17 19:34:36;;;;;;;3.97;2.55;;;22.00;99.90;;;;;;4955780;28;20254;-71
2023/09/17 19:37:03;;;;;;;5.88;2.72;;;22.00;99.90;;;;;;4955593;28;20204;-71
2023/09/17 19:39:30;;;;;;;3.03;2.35;;;22.00;99.90;;;;;;4954495;28;20212;-71
2023/09/17 19:41:59;;;;;;;4.60;2.85;;;21.90;99.90;;;;;;4954623;28;20314;-71
2023/09/17 19:44:25;;;;;;;4.75;2.85;;;21.90;99.90;;;;;;4955666;28;20216;-71
2023/09/17 19:46:53;;;;;;;4.28;3.00;;;21.90;99.90;;;;;;4955833;28;20247;-71
2023/09/17 19:49:20;;;;;;;5.82;3.33;;;21.90;99.90;;;;;;4955693;28;20208;-71
2023/09/17 19:51:47;;;;;;;4.15;2.85;;;21.80;99.90;;;;;;4955680;28;20243;-71
2023/09/17 19:54:14;;;;;;;3.58;2.90;;;21.80;99.90;;;;;;4955492;28;20263;-72
2023/09/17 19:56:41;;;;;;;4.50;3.20;;;21.80;99.90;;;;;;4955667;28;20254;-71
2023/09/17 19:59:09;;;;;;;5.40;3.00;;;21.80;99.90;;;;;;4955536;28;20299;-70
2023/09/17 20:01:36;;;;;;;11.75;5.28;;;21.80;99.90;;;;;;4955457;28;20212;-70
2023/09/17 20:04:03;;;;;;;8.35;3.50;;;21.70;99.90;;;;;;4955463;28;20246;-70
2023/09/17 20:06:30;;;;;;;3.22;2.40;;;21.70;99.90;;;;;;4955228;28;20247;-71
2023/09/17 20:08:57;;;;;;;5.35;2.55;;;21.50;99.90;;;;;;4955026;28;20290;-70
2023/09/17 20:11:24;;;;;;;6.38;2.30;;;21.50;99.90;;;;;;4955724;28;20208;-70
2023/09/17 20:13:51;;;;;;;2.70;2.25;;;21.50;99.90;;;;;;4955242;28;20276;-71
2023/09/17 20:16:19;;;;;;;3.15;2.35;;;21.50;99.90;;;;;;4955106;28;20266;-71
2023/09/17 20:18:46;;;;;;;3.22;2.65;;;21.50;99.90;;;;;;4955349;28;20239;-71
2023/09/17 20:21:13;;;;;;;3.85;2.50;;;21.50;99.90;;;;;;4955089;28;20250;-72
2023/09/17 20:23:40;;;;;;;2.90;2.00;;;21.50;99.90;;;;;;4954989;28;20267;-72